Rheinfels — V2AI4 — position and weather

sailwx.info

Track history (hours):
 
Tides and Currents Weather Stations Pressure Air Temp Water Temp Dewpoint Dewpoint Depression Visibility Wind Speed Wind Dir Waves Ship Positions

Rheinfels

Last reported at 2014-Aug-27 12:33 UTC. Time now 2014-Aug-27 13:14 UTC.
Position N 37°32' E 004°06'.

; draft 5.5 m.

Type: Cargo ship. MMSI: 304010767.

Date/timePositionNaut miles runAvg speedWind from/ knotsBaromVisibWave heightAir tempDewpointWater temp
2014-Aug-27 12:33N 37°32' E 004°06'11 8.9
2014-Aug-27 11:20N 37°32' E 003°52'7 9.0
2014-Aug-27 10:32N 37°32' E 003°43'9 8.9
2014-Aug-27 09:32N 37°32' E 003°32'20 9.6
2014-Aug-27 07:26N 37°32' E 003°07'10 9.2
2014-Aug-27 06:19N 37°31' E 002°54'7 8.8
2014-Aug-27 05:31N 37°31' E 002°45'9 9.0
2014-Aug-27 04:32N 37°30' E 002°34'9 9.0
2014-Aug-27 03:33N 37°30' E 002°23'9 8.8
2014-Aug-27 02:32N 37°30' E 002°11'20 9.0
2014-Aug-27 00:17N 37°30' E 001°46'7 9.1
2014-Aug-26 23:33N 37°30' E 001°38'9 8.8
2014-Aug-26 22:33N 37°29' E 001°26'9 9.0
2014-Aug-26 21:33N 37°29' E 001°15'9 9.1
2014-Aug-26 20:33N 37°29' E 001°04'9 8.8
2014-Aug-26 19:33N 37°29' E 000°53'9 8.7
2014-Aug-26 18:33N 37°29' E 000°42'9 8.8
2014-Aug-26 17:33N 37°29' E 000°31'9 8.9
2014-Aug-26 16:33N 37°29' E 000°19'9 8.9
2014-Aug-26 15:33N 37°29' E 000°08'9 8.8
2014-Aug-26 14:33N 37°28' W 000°03'9 8.9
2014-Aug-26 13:33N 37°28' W 000°14'9 8.9
2014-Aug-26 12:34N 37°28' W 000°25'9 8.9
2014-Aug-26 11:33N 37°29' W 000°37'10 8.7
2014-Aug-26 10:27N 37°31' W 000°49'4 0.1
2014-Aug-24 17:34N 37°32' W 000°54'147 9.6
2014-Aug-24 02:14N 38°36' E 001°54'9 9.7
2014-Aug-24 01:16N 38°41' E 002°05'19 9.9
2014-Aug-23 23:20N 38°50' E 002°26'8 9.8
2014-Aug-23 22:33N 38°53' E 002°35'10 9.7
2014-Aug-23 21:33N 38°58' E 002°46'10 9.6
2014-Aug-23 20:33N 39°02' E 002°57'9 9.5
2014-Aug-23 19:33N 39°06' E 003°08'267 9.5
2014-Aug-22 15:23N 41°10' E 008°18'9 9.3
2014-Aug-22 14:25N 41°12' E 008°30'8 9.3
2014-Aug-22 13:32N 41°14' E 008°40'10 9.6
2014-Aug-22 12:30N 41°16' E 008°53'8 9.0
2014-Aug-22 11:33N 41°18' E 009°04'  
2014-Aug-19 23:10N 41°17' E 009°02'204 8.5
2014-Aug-18 23:09N 39°44' E 005°03'6 9.1
2014-Aug-18 22:29N 39°41' E 004°57'10 7.9
2014-Aug-18 21:13N 39°36' E 004°45'49 8.5
2014-Aug-18 15:23N 39°10' E 003°51'8 8.4
2014-Aug-18 14:25N 39°06' E 003°41'9 8.3
2014-Aug-18 13:17N 39°02' E 003°31'6 8.1
2014-Aug-18 12:33N 38°58' E 003°25'9 8.1
2014-Aug-18 11:28N 38°54' E 003°15'9 8.2
2014-Aug-18 10:25N 38°50' E 003°05'17 8.5
2014-Aug-18 08:26N 38°41' E 002°47'7 8.3
2014-Aug-18 07:32N 38°37' E 002°39'  
Track history (hours):
 
Tides and Currents Weather Stations Pressure Air Temp Water Temp Dewpoint Dewpoint Depression Visibility Wind Speed Wind Dir Waves Ship Positions

Rheinfels

Last reported at 2014-Aug-27 12:33 UTC. Time now 2014-Aug-27 13:14 UTC.
Position N 37°32' E 004°06'.

; draft 5.5 m.

Type: Cargo ship. MMSI: 304010767.

Date/timePositionNaut miles runAvg speedWind from/ knotsBaromVisibWave heightAir tempDewpointWater temp
2014-Aug-27 12:33N 37°32' E 004°06'11 8.9
2014-Aug-27 11:20N 37°32' E 003°52'7 9.0
2014-Aug-27 10:32N 37°32' E 003°43'9 8.9
2014-Aug-27 09:32N 37°32' E 003°32'20 9.6
2014-Aug-27 07:26N 37°32' E 003°07'10 9.2
2014-Aug-27 06:19N 37°31' E 002°54'7 8.8
2014-Aug-27 05:31N 37°31' E 002°45'9 9.0
2014-Aug-27 04:32N 37°30' E 002°34'9 9.0
2014-Aug-27 03:33N 37°30' E 002°23'9 8.8
2014-Aug-27 02:32N 37°30' E 002°11'20 9.0
2014-Aug-27 00:17N 37°30' E 001°46'7 9.1
2014-Aug-26 23:33N 37°30' E 001°38'9 8.8
2014-Aug-26 22:33N 37°29' E 001°26'9 9.0
2014-Aug-26 21:33N 37°29' E 001°15'9 9.1
2014-Aug-26 20:33N 37°29' E 001°04'9 8.8
2014-Aug-26 19:33N 37°29' E 000°53'9 8.7
2014-Aug-26 18:33N 37°29' E 000°42'9 8.8
2014-Aug-26 17:33N 37°29' E 000°31'9 8.9
2014-Aug-26 16:33N 37°29' E 000°19'9 8.9
2014-Aug-26 15:33N 37°29' E 000°08'9 8.8
2014-Aug-26 14:33N 37°28' W 000°03'9 8.9
2014-Aug-26 13:33N 37°28' W 000°14'9 8.9
2014-Aug-26 12:34N 37°28' W 000°25'9 8.9
2014-Aug-26 11:33N 37°29' W 000°37'10 8.7
2014-Aug-26 10:27N 37°31' W 000°49'4 0.1
2014-Aug-24 17:34N 37°32' W 000°54'147 9.6
2014-Aug-24 02:14N 38°36' E 001°54'9 9.7
2014-Aug-24 01:16N 38°41' E 002°05'19 9.9
2014-Aug-23 23:20N 38°50' E 002°26'8 9.8
2014-Aug-23 22:33N 38°53' E 002°35'10 9.7
2014-Aug-23 21:33N 38°58' E 002°46'10 9.6
2014-Aug-23 20:33N 39°02' E 002°57'9 9.5
2014-Aug-23 19:33N 39°06' E 003°08'267 9.5
2014-Aug-22 15:23N 41°10' E 008°18'9 9.3
2014-Aug-22 14:25N 41°12' E 008°30'8 9.3
2014-Aug-22 13:32N 41°14' E 008°40'10 9.6
2014-Aug-22 12:30N 41°16' E 008°53'8 9.0
2014-Aug-22 11:33N 41°18' E 009°04'  
2014-Aug-19 23:10N 41°17' E 009°02'204 8.5
2014-Aug-18 23:09N 39°44' E 005°03'6 9.1
2014-Aug-18 22:29N 39°41' E 004°57'10 7.9
2014-Aug-18 21:13N 39°36' E 004°45'49 8.5
2014-Aug-18 15:23N 39°10' E 003°51'8 8.4
2014-Aug-18 14:25N 39°06' E 003°41'9 8.3
2014-Aug-18 13:17N 39°02' E 003°31'6 8.1
2014-Aug-18 12:33N 38°58' E 003°25'9 8.1
2014-Aug-18 11:28N 38°54' E 003°15'9 8.2
2014-Aug-18 10:25N 38°50' E 003°05'17 8.5
2014-Aug-18 08:26N 38°41' E 002°47'7 8.3
2014-Aug-18 07:32N 38°37' E 002°39'  

Dump ship's entire track history